sensor_id;sensor_type;location;lat;lon;timestamp;P1;durP1;ratioP1;P2;durP2;ratioP2
69856;SDS011;57147;53.582;10.112;2023-03-17T00:00:32;4.40;;;3.67;;
69856;SDS011;57147;53.582;10.112;2023-03-17T00:05:36;3.38;;;1.42;;
69856;SDS011;57147;53.582;10.112;2023-03-17T00:10:36;4.45;;;3.38;;
69856;SDS011;57147;53.582;10.112;2023-03-17T00:15:38;4.28;;;3.75;;
69856;SDS011;57147;53.582;10.112;2023-03-17T00:20:41;4.30;;;3.90;;
69856;SDS011;57147;53.582;10.112;2023-03-17T00:25:42;3.90;;;3.28;;
69856;SDS011;57147;53.582;10.112;2023-03-17T00:30:43;4.93;;;4.40;;
69856;SDS011;57147;53.582;10.112;2023-03-17T00:35:46;3.45;;;2.83;;
69856;SDS011;57147;53.582;10.112;2023-03-17T00:40:47;4.15;;;3.75;;
69856;SDS011;57147;53.582;10.112;2023-03-17T00:45:48;4.75;;;4.28;;
69856;SDS011;57147;53.582;10.112;2023-03-17T00:50:51;4.65;;;2.28;;
69856;SDS011;57147;53.582;10.112;2023-03-17T00:55:51;5.65;;;5.15;;
69856;SDS011;57147;53.582;10.112;2023-03-17T01:00:52;4.88;;;4.47;;
69856;SDS011;57147;53.582;10.112;2023-03-17T01:05:55;5.30;;;4.40;;
69856;SDS011;57147;53.582;10.112;2023-03-17T01:10:56;4.72;;;4.30;;
69856;SDS011;57147;53.582;10.112;2023-03-17T01:15:57;4.35;;;3.40;;
69856;SDS011;57147;53.582;10.112;2023-03-17T01:21:01;3.55;;;3.25;;
69856;SDS011;57147;53.582;10.112;2023-03-17T01:26:02;5.55;;;5.05;;
69856;SDS011;57147;53.582;10.112;2023-03-17T01:31:03;4.72;;;2.10;;
69856;SDS011;57147;53.582;10.112;2023-03-17T01:36:07;4.80;;;3.97;;
69856;SDS011;57147;53.582;10.112;2023-03-17T01:41:10;4.10;;;3.72;;
69856;SDS011;57147;53.582;10.112;2023-03-17T01:46:16;4.30;;;3.88;;
69856;SDS011;57147;53.582;10.112;2023-03-17T01:51:23;4.43;;;4.03;;
69856;SDS011;57147;53.582;10.112;2023-03-17T01:56:28;5.63;;;4.63;;
69856;SDS011;57147;53.582;10.112;2023-03-17T02:01:32;4.22;;;3.83;;
69856;SDS011;57147;53.582;10.112;2023-03-17T02:06:38;4.75;;;3.95;;
69856;SDS011;57147;53.582;10.112;2023-03-17T02:11:40;4.10;;;1.85;;
69856;SDS011;57147;53.582;10.112;2023-03-17T02:16:42;5.18;;;4.63;;
69856;SDS011;57147;53.582;10.112;2023-03-17T02:21:46;4.82;;;4.43;;
69856;SDS011;57147;53.582;10.112;2023-03-17T02:26:49;4.50;;;3.58;;
69856;SDS011;57147;53.582;10.112;2023-03-17T02:31:53;4.45;;;4.05;;
69856;SDS011;57147;53.582;10.112;2023-03-17T02:36:56;7.03;;;4.88;;
69856;SDS011;57147;53.582;10.112;2023-03-17T02:41:57;5.53;;;4.60;;
69856;SDS011;57147;53.582;10.112;2023-03-17T02:46:57;5.65;;;5.05;;
69856;SDS011;57147;53.582;10.112;2023-03-17T02:52:01;5.72;;;4.57;;
69856;SDS011;57147;53.582;10.112;2023-03-17T02:57:02;6.13;;;4.75;;
69856;SDS011;57147;53.582;10.112;2023-03-17T03:02:03;5.18;;;4.68;;
69856;SDS011;57147;53.582;10.112;2023-03-17T03:07:06;6.43;;;5.30;;
69856;SDS011;57147;53.582;10.112;2023-03-17T03:12:07;5.38;;;4.88;;
69856;SDS011;57147;53.582;10.112;2023-03-17T03:17:08;5.95;;;5.22;;
69856;SDS011;57147;53.582;10.112;2023-03-17T03:22:12;4.65;;;4.18;;
69856;SDS011;57147;53.582;10.112;2023-03-17T03:27:13;8.75;;;6.35;;
69856;SDS011;57147;53.582;10.112;2023-03-17T03:32:14;4.93;;;4.20;;
69856;SDS011;57147;53.582;10.112;2023-03-17T03:37:19;5.47;;;5.00;;
69856;SDS011;57147;53.582;10.112;2023-03-17T03:42:19;5.28;;;4.78;;
69856;SDS011;57147;53.582;10.112;2023-03-17T03:47:20;6.32;;;4.90;;
69856;SDS011;57147;53.582;10.112;2023-03-17T03:52:23;5.55;;;4.72;;
69856;SDS011;57147;53.582;10.112;2023-03-17T03:57:24;5.85;;;5.35;;
69856;SDS011;57147;53.582;10.112;2023-03-17T04:02:24;4.53;;;3.72;;
69856;SDS011;57147;53.582;10.112;2023-03-17T04:07:28;6.90;;;6.30;;
69856;SDS011;57147;53.582;10.112;2023-03-17T04:12:28;5.38;;;4.57;;
69856;SDS011;57147;53.582;10.112;2023-03-17T04:17:29;5.82;;;2.95;;
69856;SDS011;57147;53.582;10.112;2023-03-17T04:22:32;5.60;;;5.00;;
69856;SDS011;57147;53.582;10.112;2023-03-17T04:27:32;7.80;;;5.40;;
69856;SDS011;57147;53.582;10.112;2023-03-17T04:32:33;4.65;;;3.75;;
69856;SDS011;57147;53.582;10.112;2023-03-17T04:37:36;6.75;;;5.25;;
69856;SDS011;57147;53.582;10.112;2023-03-17T04:42:37;3.80;;;2.88;;
69856;SDS011;57147;53.582;10.112;2023-03-17T04:47:38;5.57;;;2.55;;
69856;SDS011;57147;53.582;10.112;2023-03-17T04:52:41;5.18;;;4.70;;
69856;SDS011;57147;53.582;10.112;2023-03-17T04:57:42;5.70;;;5.18;;
69856;SDS011;57147;53.582;10.112;2023-03-17T05:02:43;6.07;;;5.10;;
69856;SDS011;57147;53.582;10.112;2023-03-17T05:07:46;6.93;;;5.43;;
69856;SDS011;57147;53.582;10.112;2023-03-17T05:12:46;6.65;;;5.13;;
69856;SDS011;57147;53.582;10.112;2023-03-17T05:17:47;6.43;;;5.60;;
69856;SDS011;57147;53.582;10.112;2023-03-17T05:22:50;7.88;;;6.85;;
69856;SDS011;57147;53.582;10.112;2023-03-17T05:27:51;6.78;;;5.40;;
69856;SDS011;57147;53.582;10.112;2023-03-17T05:32:51;5.95;;;5.22;;
69856;SDS011;57147;53.582;10.112;2023-03-17T05:37:55;6.93;;;4.78;;
69856;SDS011;57147;53.582;10.112;2023-03-17T05:42:55;10.50;;;7.93;;
69856;SDS011;57147;53.582;10.112;2023-03-17T05:47:56;8.90;;;7.05;;
69856;SDS011;57147;53.582;10.112;2023-03-17T05:52:59;7.28;;;5.55;;
69856;SDS011;57147;53.582;10.112;2023-03-17T05:58:00;7.82;;;6.07;;
69856;SDS011;57147;53.582;10.112;2023-03-17T06:03:01;7.95;;;7.22;;
69856;SDS011;57147;53.582;10.112;2023-03-17T06:13:34;6.82;;;6.18;;
69856;SDS011;57147;53.582;10.112;2023-03-17T06:18:34;4.88;;;3.05;;
69856;SDS011;57147;53.582;10.112;2023-03-17T06:23:37;7.65;;;6.28;;
69856;SDS011;57147;53.582;10.112;2023-03-17T06:28:41;6.05;;;5.45;;
69856;SDS011;57147;53.582;10.112;2023-03-17T06:33:42;8.60;;;6.43;;
69856;SDS011;57147;53.582;10.112;2023-03-17T06:38:47;5.93;;;3.28;;
69856;SDS011;57147;53.582;10.112;2023-03-17T06:44:05;9.05;;;8.35;;
69856;SDS011;57147;53.582;10.112;2023-03-17T06:49:06;6.68;;;5.93;;
69856;SDS011;57147;53.582;10.112;2023-03-17T06:54:09;7.10;;;6.22;;
69856;SDS011;57147;53.582;10.112;2023-03-17T06:59:10;8.50;;;6.85;;
69856;SDS011;57147;53.582;10.112;2023-03-17T07:04:10;9.77;;;6.43;;
69856;SDS011;57147;53.582;10.112;2023-03-17T07:09:14;8.95;;;7.85;;
69856;SDS011;57147;53.582;10.112;2023-03-17T07:14:17;9.00;;;7.00;;
69856;SDS011;57147;53.582;10.112;2023-03-17T07:19:18;8.95;;;7.15;;
69856;SDS011;57147;53.582;10.112;2023-03-17T07:24:21;8.98;;;7.75;;
69856;SDS011;57147;53.582;10.112;2023-03-17T07:29:22;7.15;;;6.15;;
69856;SDS011;57147;53.582;10.112;2023-03-17T07:34:26;8.35;;;6.90;;
69856;SDS011;57147;53.582;10.112;2023-03-17T07:39:29;6.90;;;6.07;;
69856;SDS011;57147;53.582;10.112;2023-03-17T07:44:29;5.72;;;4.05;;
69856;SDS011;57147;53.582;10.112;2023-03-17T07:49:30;8.73;;;6.90;;
69856;SDS011;57147;53.582;10.112;2023-03-17T07:54:33;8.00;;;6.18;;
69856;SDS011;57147;53.582;10.112;2023-03-17T07:59:34;8.27;;;7.45;;
69856;SDS011;57147;53.582;10.112;2023-03-17T08:04:35;8.60;;;6.63;;
69856;SDS011;57147;53.582;10.112;2023-03-17T08:09:38;7.82;;;6.78;;
69856;SDS011;57147;53.582;10.112;2023-03-17T08:14:39;6.50;;;5.47;;
69856;SDS011;57147;53.582;10.112;2023-03-17T08:19:43;7.80;;;5.82;;
69856;SDS011;57147;53.582;10.112;2023-03-17T08:24:46;8.07;;;5.88;;
69856;SDS011;57147;53.582;10.112;2023-03-17T08:29:47;8.40;;;5.65;;
69856;SDS011;57147;53.582;10.112;2023-03-17T08:34:51;6.05;;;4.82;;
69856;SDS011;57147;53.582;10.112;2023-03-17T08:39:55;6.20;;;5.50;;
69856;SDS011;57147;53.582;10.112;2023-03-17T08:44:55;7.32;;;6.13;;
69856;SDS011;57147;53.582;10.112;2023-03-17T08:49:56;8.00;;;7.07;;
69856;SDS011;57147;53.582;10.112;2023-03-17T08:54:59;7.95;;;6.20;;
69856;SDS011;57147;53.582;10.112;2023-03-17T09:00:03;6.50;;;5.75;;
69856;SDS011;57147;53.582;10.112;2023-03-17T09:05:06;7.43;;;5.93;;
69856;SDS011;57147;53.582;10.112;2023-03-17T09:10:10;7.80;;;4.60;;
69856;SDS011;57147;53.582;10.112;2023-03-17T09:15:11;7.47;;;6.78;;
69856;SDS011;57147;53.582;10.112;2023-03-17T09:20:12;5.75;;;3.28;;
69856;SDS011;57147;53.582;10.112;2023-03-17T09:25:15;5.85;;;3.28;;
69856;SDS011;57147;53.582;10.112;2023-03-17T09:30:16;6.75;;;5.43;;
69856;SDS011;57147;53.582;10.112;2023-03-17T09:35:17;7.25;;;5.95;;
69856;SDS011;57147;53.582;10.112;2023-03-17T09:40:26;5.25;;;4.47;;
69856;SDS011;57147;53.582;10.112;2023-03-17T09:45:31;6.03;;;4.25;;
69856;SDS011;57147;53.582;10.112;2023-03-17T09:50:36;6.18;;;4.97;;
69856;SDS011;57147;53.582;10.112;2023-03-17T09:55:45;4.97;;;3.03;;
69856;SDS011;57147;53.582;10.112;2023-03-17T10:00:47;7.13;;;5.78;;
69856;SDS011;57147;53.582;10.112;2023-03-17T10:05:48;7.35;;;2.95;;
69856;SDS011;57147;53.582;10.112;2023-03-17T10:10:52;5.88;;;5.20;;
69856;SDS011;57147;53.582;10.112;2023-03-17T10:15:57;6.00;;;4.65;;
69856;SDS011;57147;53.582;10.112;2023-03-17T10:21:03;6.18;;;5.57;;
69856;SDS011;57147;53.582;10.112;2023-03-17T10:26:16;5.55;;;4.90;;
69856;SDS011;57147;53.582;10.112;2023-03-17T10:31:27;13.13;;;8.48;;
69856;SDS011;57147;53.582;10.112;2023-03-17T10:36:32;5.80;;;5.05;;
69856;SDS011;57147;53.582;10.112;2023-03-17T10:41:37;5.68;;;4.80;;
69856;SDS011;57147;53.582;10.112;2023-03-17T10:46:40;7.22;;;5.40;;
69856;SDS011;57147;53.582;10.112;2023-03-17T10:51:53;5.13;;;2.97;;
69856;SDS011;57147;53.582;10.112;2023-03-17T10:56:57;6.20;;;4.43;;
69856;SDS011;57147;53.582;10.112;2023-03-17T11:02:05;5.00;;;4.50;;
69856;SDS011;57147;53.582;10.112;2023-03-17T11:07:16;4.80;;;4.20;;
69856;SDS011;57147;53.582;10.112;2023-03-17T11:12:23;4.40;;;3.42;;
69856;SDS011;57147;53.582;10.112;2023-03-17T11:17:30;4.93;;;3.10;;
69856;SDS011;57147;53.582;10.112;2023-03-17T11:22:48;5.03;;;4.15;;
69856;SDS011;57147;53.582;10.112;2023-03-17T11:27:59;5.88;;;4.05;;
69856;SDS011;57147;53.582;10.112;2023-03-17T11:33:09;4.60;;;4.00;;
69856;SDS011;57147;53.582;10.112;2023-03-17T11:38:18;5.97;;;4.10;;
69856;SDS011;57147;53.582;10.112;2023-03-17T11:43:25;5.05;;;3.67;;
69856;SDS011;57147;53.582;10.112;2023-03-17T11:48:35;6.15;;;3.65;;
69856;SDS011;57147;53.582;10.112;2023-03-17T11:53:52;5.47;;;4.65;;
69856;SDS011;57147;53.582;10.112;2023-03-17T11:59:02;4.25;;;3.30;;
69856;SDS011;57147;53.582;10.112;2023-03-17T12:04:08;4.05;;;3.40;;
69856;SDS011;57147;53.582;10.112;2023-03-17T12:09:18;5.80;;;3.67;;
69856;SDS011;57147;53.582;10.112;2023-03-17T12:14:27;4.88;;;2.88;;
69856;SDS011;57147;53.582;10.112;2023-03-17T12:19:32;3.55;;;3.00;;
69856;SDS011;57147;53.582;10.112;2023-03-17T12:24:38;2.88;;;2.10;;
69856;SDS011;57147;53.582;10.112;2023-03-17T12:29:45;4.40;;;3.33;;
69856;SDS011;57147;53.582;10.112;2023-03-17T12:34:49;5.20;;;3.60;;
69856;SDS011;57147;53.582;10.112;2023-03-17T12:39:52;4.68;;;3.10;;
69856;SDS011;57147;53.582;10.112;2023-03-17T12:45:03;6.30;;;3.65;;
69856;SDS011;57147;53.582;10.112;2023-03-17T12:50:24;4.03;;;2.42;;
69856;SDS011;57147;53.582;10.112;2023-03-17T12:55:33;3.75;;;2.95;;
69856;SDS011;57147;53.582;10.112;2023-03-17T13:00:46;4.70;;;3.90;;
69856;SDS011;57147;53.582;10.112;2023-03-17T13:05:57;4.15;;;3.75;;
69856;SDS011;57147;53.582;10.112;2023-03-17T13:11:13;5.50;;;4.57;;
69856;SDS011;57147;53.582;10.112;2023-03-17T13:16:28;3.90;;;3.53;;
69856;SDS011;57147;53.582;10.112;2023-03-17T13:21:30;5.18;;;4.75;;
69856;SDS011;57147;53.582;10.112;2023-03-17T13:37:29;4.35;;;3.15;;
69856;SDS011;57147;53.582;10.112;2023-03-17T13:42:40;4.50;;;3.10;;
69856;SDS011;57147;53.582;10.112;2023-03-17T13:47:50;3.92;;;2.95;;
69856;SDS011;57147;53.582;10.112;2023-03-17T13:52:55;5.43;;;4.15;;
69856;SDS011;57147;53.582;10.112;2023-03-17T14:03:21;3.30;;;2.72;;
69856;SDS011;57147;53.582;10.112;2023-03-17T14:08:31;4.40;;;3.22;;
69856;SDS011;57147;53.582;10.112;2023-03-17T14:13:35;5.72;;;4.38;;
69856;SDS011;57147;53.582;10.112;2023-03-17T14:18:43;2.97;;;2.60;;
69856;SDS011;57147;53.582;10.112;2023-03-17T14:23:54;3.45;;;2.42;;
69856;SDS011;57147;53.582;10.112;2023-03-17T14:28:57;4.75;;;3.25;;
69856;SDS011;57147;53.582;10.112;2023-03-17T14:33:59;3.30;;;3.00;;
69856;SDS011;57147;53.582;10.112;2023-03-17T14:39:03;3.75;;;3.30;;
69856;SDS011;57147;53.582;10.112;2023-03-17T14:44:07;4.38;;;2.38;;
69856;SDS011;57147;53.582;10.112;2023-03-17T14:49:13;4.93;;;3.05;;
69856;SDS011;57147;53.582;10.112;2023-03-17T14:54:18;5.97;;;2.75;;
69856;SDS011;57147;53.582;10.112;2023-03-17T14:59:24;4.32;;;3.22;;
69856;SDS011;57147;53.582;10.112;2023-03-17T15:04:28;4.72;;;3.00;;
69856;SDS011;57147;53.582;10.112;2023-03-17T15:09:33;4.35;;;2.80;;
69856;SDS011;57147;53.582;10.112;2023-03-17T15:14:35;3.35;;;2.25;;
69856;SDS011;57147;53.582;10.112;2023-03-17T15:19:39;4.28;;;1.73;;
69856;SDS011;57147;53.582;10.112;2023-03-17T15:24:50;4.43;;;3.22;;
69856;SDS011;57147;53.582;10.112;2023-03-17T15:29:51;5.22;;;2.95;;
69856;SDS011;57147;53.582;10.112;2023-03-17T15:34:52;4.85;;;2.97;;
69856;SDS011;57147;53.582;10.112;2023-03-17T15:39:57;7.13;;;5.43;;
69856;SDS011;57147;53.582;10.112;2023-03-17T15:44:59;3.45;;;2.97;;
69856;SDS011;57147;53.582;10.112;2023-03-17T15:50:01;3.20;;;1.80;;
69856;SDS011;57147;53.582;10.112;2023-03-17T15:55:13;6.00;;;3.97;;
69856;SDS011;57147;53.582;10.112;2023-03-17T16:00:16;6.00;;;5.03;;
69856;SDS011;57147;53.582;10.112;2023-03-17T16:05:18;6.50;;;4.75;;
69856;SDS011;57147;53.582;10.112;2023-03-17T16:10:23;5.05;;;4.25;;
69856;SDS011;57147;53.582;10.112;2023-03-17T16:15:27;4.05;;;3.65;;
69856;SDS011;57147;53.582;10.112;2023-03-17T16:20:33;6.10;;;4.75;;
69856;SDS011;57147;53.582;10.112;2023-03-17T16:25:39;8.05;;;6.03;;
69856;SDS011;57147;53.582;10.112;2023-03-17T16:30:40;6.82;;;6.00;;
69856;SDS011;57147;53.582;10.112;2023-03-17T16:35:41;3.80;;;3.08;;
69856;SDS011;57147;53.582;10.112;2023-03-17T16:40:45;6.60;;;5.10;;
69856;SDS011;57147;53.582;10.112;2023-03-17T16:45:48;6.43;;;3.50;;
69856;SDS011;57147;53.582;10.112;2023-03-17T16:50:49;6.30;;;4.63;;
69856;SDS011;57147;53.582;10.112;2023-03-17T16:55:53;4.15;;;3.75;;
69856;SDS011;57147;53.582;10.112;2023-03-17T17:00:56;3.75;;;3.45;;
69856;SDS011;57147;53.582;10.112;2023-03-17T17:05:58;2.63;;;2.30;;
69856;SDS011;57147;53.582;10.112;2023-03-17T17:11:02;5.30;;;3.10;;
69856;SDS011;57147;53.582;10.112;2023-03-17T17:16:02;3.03;;;2.03;;
69856;SDS011;57147;53.582;10.112;2023-03-17T17:21:04;3.95;;;3.15;;
69856;SDS011;57147;53.582;10.112;2023-03-17T17:26:07;4.05;;;3.55;;
69856;SDS011;57147;53.582;10.112;2023-03-17T17:31:08;6.22;;;5.53;;
69856;SDS011;57147;53.582;10.112;2023-03-17T17:36:11;14.77;;;12.38;;
69856;SDS011;57147;53.582;10.112;2023-03-17T17:41:16;12.45;;;11.35;;
69856;SDS011;57147;53.582;10.112;2023-03-17T17:46:18;8.77;;;7.82;;
69856;SDS011;57147;53.582;10.112;2023-03-17T17:51:20;9.05;;;7.97;;
69856;SDS011;57147;53.582;10.112;2023-03-17T17:56:23;5.90;;;4.88;;
69856;SDS011;57147;53.582;10.112;2023-03-17T18:01:24;7.65;;;6.78;;
69856;SDS011;57147;53.582;10.112;2023-03-17T18:06:24;7.75;;;7.03;;
69856;SDS011;57147;53.582;10.112;2023-03-17T18:11:28;5.60;;;5.00;;
69856;SDS011;57147;53.582;10.112;2023-03-17T18:16:28;12.93;;;11.93;;
69856;SDS011;57147;53.582;10.112;2023-03-17T18:21:29;10.45;;;9.52;;
69856;SDS011;57147;53.582;10.112;2023-03-17T18:26:32;8.10;;;6.20;;
69856;SDS011;57147;53.582;10.112;2023-03-17T18:31:36;7.47;;;5.80;;
69856;SDS011;57147;53.582;10.112;2023-03-17T18:36:39;11.95;;;10.88;;
69856;SDS011;57147;53.582;10.112;2023-03-17T18:41:42;9.90;;;8.93;;
69856;SDS011;57147;53.582;10.112;2023-03-17T18:46:43;10.88;;;9.77;;
69856;SDS011;57147;53.582;10.112;2023-03-17T18:51:44;9.68;;;8.70;;
69856;SDS011;57147;53.582;10.112;2023-03-17T18:56:47;10.20;;;9.20;;
69856;SDS011;57147;53.582;10.112;2023-03-17T19:01:48;15.93;;;11.20;;
69856;SDS011;57147;53.582;10.112;2023-03-17T19:06:49;11.65;;;7.90;;
69856;SDS011;57147;53.582;10.112;2023-03-17T19:11:52;11.63;;;9.48;;
69856;SDS011;57147;53.582;10.112;2023-03-17T19:16:56;10.85;;;8.77;;
69856;SDS011;57147;53.582;10.112;2023-03-17T19:22:00;11.20;;;7.35;;
69856;SDS011;57147;53.582;10.112;2023-03-17T19:27:04;20.50;;;18.92;;
69856;SDS011;57147;53.582;10.112;2023-03-17T19:32:04;10.30;;;9.30;;
69856;SDS011;57147;53.582;10.112;2023-03-17T19:37:05;13.07;;;12.07;;
69856;SDS011;57147;53.582;10.112;2023-03-17T19:42:08;5.28;;;3.85;;
69856;SDS011;57147;53.582;10.112;2023-03-17T19:47:09;7.95;;;7.20;;
69856;SDS011;57147;53.582;10.112;2023-03-17T19:52:09;8.73;;;7.75;;
69856;SDS011;57147;53.582;10.112;2023-03-17T19:57:13;7.68;;;6.97;;
69856;SDS011;57147;53.582;10.112;2023-03-17T20:02:15;7.82;;;7.10;;
69856;SDS011;57147;53.582;10.112;2023-03-17T20:07:19;8.10;;;7.13;;
69856;SDS011;57147;53.582;10.112;2023-03-17T20:12:22;9.55;;;8.65;;
69856;SDS011;57147;53.582;10.112;2023-03-17T20:17:23;9.57;;;8.70;;
69856;SDS011;57147;53.582;10.112;2023-03-17T20:22:23;12.18;;;10.90;;
69856;SDS011;57147;53.582;10.112;2023-03-17T20:27:27;14.23;;;12.73;;
69856;SDS011;57147;53.582;10.112;2023-03-17T20:32:28;14.57;;;10.60;;
69856;SDS011;57147;53.582;10.112;2023-03-17T20:37:28;16.25;;;11.90;;
69856;SDS011;57147;53.582;10.112;2023-03-17T20:42:32;14.35;;;9.85;;
69856;SDS011;57147;53.582;10.112;2023-03-17T20:47:33;11.98;;;8.73;;
69856;SDS011;57147;53.582;10.112;2023-03-17T20:52:34;12.85;;;10.23;;
69856;SDS011;57147;53.582;10.112;2023-03-17T20:57:37;11.07;;;9.00;;
69856;SDS011;57147;53.582;10.112;2023-03-17T21:02:38;11.95;;;10.77;;
69856;SDS011;57147;53.582;10.112;2023-03-17T21:07:39;14.55;;;13.05;;
69856;SDS011;57147;53.582;10.112;2023-03-17T21:12:43;12.73;;;11.38;;
69856;SDS011;57147;53.582;10.112;2023-03-17T21:17:44;10.82;;;8.27;;
69856;SDS011;57147;53.582;10.112;2023-03-17T21:22:48;11.30;;;10.30;;
69856;SDS011;57147;53.582;10.112;2023-03-17T21:27:55;14.13;;;9.18;;
69856;SDS011;57147;53.582;10.112;2023-03-17T21:32:56;11.23;;;7.75;;
69856;SDS011;57147;53.582;10.112;2023-03-17T21:37:56;15.38;;;11.15;;
69856;SDS011;57147;53.582;10.112;2023-03-17T21:43:00;15.77;;;9.50;;
69856;SDS011;57147;53.582;10.112;2023-03-17T21:48:03;14.55;;;9.38;;
69856;SDS011;57147;53.582;10.112;2023-03-17T21:53:04;12.75;;;7.63;;
69856;SDS011;57147;53.582;10.112;2023-03-17T21:58:10;9.38;;;6.32;;
69856;SDS011;57147;53.582;10.112;2023-03-17T22:03:10;9.63;;;6.03;;
69856;SDS011;57147;53.582;10.112;2023-03-17T22:08:11;7.97;;;5.43;;
69856;SDS011;57147;53.582;10.112;2023-03-17T22:13:24;8.00;;;6.72;;
69856;SDS011;57147;53.582;10.112;2023-03-17T22:18:25;7.90;;;5.82;;
69856;SDS011;57147;53.582;10.112;2023-03-17T22:23:26;7.20;;;6.50;;
69856;SDS011;57147;53.582;10.112;2023-03-17T22:28:32;9.35;;;7.38;;
69856;SDS011;57147;53.582;10.112;2023-03-17T22:33:34;6.95;;;4.82;;
69856;SDS011;57147;53.582;10.112;2023-03-17T22:38:34;6.70;;;5.65;;
69856;SDS011;57147;53.582;10.112;2023-03-17T22:43:38;10.00;;;6.85;;
69856;SDS011;57147;53.582;10.112;2023-03-17T22:48:38;10.48;;;7.18;;
69856;SDS011;57147;53.582;10.112;2023-03-17T22:53:39;6.90;;;4.00;;
69856;SDS011;57147;53.582;10.112;2023-03-17T22:58:43;11.80;;;8.70;;
69856;SDS011;57147;53.582;10.112;2023-03-17T23:03:44;9.82;;;8.00;;
69856;SDS011;57147;53.582;10.112;2023-03-17T23:08:45;15.15;;;11.10;;
69856;SDS011;57147;53.582;10.112;2023-03-17T23:13:49;34.00;;;17.10;;
69856;SDS011;57147;53.582;10.112;2023-03-17T23:18:50;9.70;;;7.63;;
69856;SDS011;57147;53.582;10.112;2023-03-17T23:23:52;7.68;;;6.00;;
69856;SDS011;57147;53.582;10.112;2023-03-17T23:28:56;8.07;;;6.25;;
69856;SDS011;57147;53.582;10.112;2023-03-17T23:33:57;7.45;;;6.75;;
69856;SDS011;57147;53.582;10.112;2023-03-17T23:38:57;6.72;;;5.63;;
69856;SDS011;57147;53.582;10.112;2023-03-17T23:44:00;7.43;;;5.93;;
69856;SDS011;57147;53.582;10.112;2023-03-17T23:49:01;11.55;;;7.03;;
69856;SDS011;57147;53.582;10.112;2023-03-17T23:54:02;11.02;;;8.55;;
69856;SDS011;57147;53.582;10.112;2023-03-17T23:59:06;10.25;;;9.30;;
